Time;durP1;ratioP1;P1;durP2;ratioP2;P2;SDS_P1;SDS_P2;PMS_P1;PMS_P2;Temp;Humidity;BMP_temperature;BMP_pressure;BME280_temperature;BME280_humidity;BME280_pressure;Samples;Min_cycle;Max_cycle;Signal;HPM_P1;HPM_P2
2023/06/02 00:01:03;;;;;;;9.40;5.93;;;;;;;14.41;98.57;94514.56;5155505;27;20205;-71
2023/06/02 00:03:32;;;;;;;10.00;5.45;;;;;;;14.53;98.23;94515.25;5141479;27;20207;-72
2023/06/02 00:05:59;;;;;;;12.13;5.50;;;;;;;14.58;97.09;94503.28;5142388;27;20201;-71
2023/06/02 00:08:26;;;;;;;8.27;5.65;;;;;;;14.63;95.62;94510.38;5148361;27;20219;-71
2023/06/02 00:10:53;;;;;;;8.10;5.50;;;;;;;14.76;95.02;94509.13;5146835;27;20200;-72
2023/06/02 00:13:22;;;;;;;8.15;5.32;;;;;;;14.73;94.36;94516.09;5140753;27;20231;-71
2023/06/02 00:15:49;;;;;;;9.38;5.78;;;;;;;14.67;94.40;94501.13;5141319;27;20690;-72
2023/06/02 00:18:16;;;;;;;7.70;4.57;;;;;;;14.70;94.58;94505.09;5148039;27;20622;-71
2023/06/02 00:20:44;;;;;;;9.60;5.28;;;;;;;14.71;95.03;94509.41;5147909;27;20652;-71
2023/06/02 00:23:11;;;;;;;12.50;4.85;;;;;;;14.73;94.75;94507.91;5141752;27;20200;-72
2023/06/02 00:25:39;;;;;;;11.02;5.38;;;;;;;14.68;95.83;94502.72;5140707;27;20208;-72
2023/06/02 00:28:07;;;;;;;11.63;5.90;;;;;;;14.63;97.14;94511.16;5146398;27;20695;-71
2023/06/02 00:30:36;;;;;;;12.00;5.50;;;;;;;14.52;97.21;94505.47;5146951;27;20224;-71
2023/06/02 00:33:02;;;;;;;9.05;5.38;;;;;;;14.62;97.52;94509.59;5142878;27;20582;-71
2023/06/02 00:35:30;;;;;;;9.85;5.13;;;;;;;14.65;96.87;94508.88;5152275;27;20212;-71
2023/06/02 00:37:57;;;;;;;8.70;5.00;;;;;;;14.65;96.72;94508.88;5143359;27;20207;-71
2023/06/02 00:40:24;;;;;;;8.20;5.13;;;;;;;14.69;96.80;94504.31;5140550;27;20216;-71
2023/06/02 00:42:51;;;;;;;10.23;5.30;;;;;;;14.71;97.03;94502.00;5145307;27;20216;-71
2023/06/02 00:45:18;;;;;;;8.32;4.88;;;;;;;14.72;97.11;94503.59;5147078;27;20203;-71
2023/06/02 00:47:46;;;;;;;8.52;5.55;;;;;;;14.60;97.70;94497.47;5142941;27;20204;-71
2023/06/02 00:50:12;;;;;;;6.07;4.55;;;;;;;14.71;97.53;94502.00;5139348;27;20232;-71
2023/06/02 00:52:40;;;;;;;8.73;5.93;;;;;;;14.70;97.49;94505.09;5144328;27;20224;-72
2023/06/02 00:55:08;;;;;;;9.50;5.65;;;;;;;14.73;97.17;94505.19;5146928;27;20539;-72
2023/06/02 00:57:40;;;;;;;12.18;5.60;;;;;;;14.75;97.37;94497.44;5144040;27;20196;-72
2023/06/02 01:00:09;;;;;;;9.40;5.22;;;;;;;14.58;98.31;94497.81;5149497;27;20197;-72
2023/06/02 01:02:36;;;;;;;8.65;5.47;;;;;;;14.56;98.30;94489.22;5143983;27;20214;-72
2023/06/02 01:05:07;;;;;;;8.93;5.13;;;;;;;14.44;98.14;94489.31;5149192;27;20612;-72
2023/06/02 01:07:36;;;;;;;8.00;4.95;;;;;;;14.49;98.85;94489.03;5145527;27;20200;-72
2023/06/02 01:10:03;;;;;;;9.38;5.13;;;;;;;14.57;98.48;94479.88;5133761;27;20201;-71
2023/06/02 01:12:30;;;;;;;7.85;5.18;;;;;;;14.47;98.96;94486.69;5145934;27;20631;-72
2023/06/02 01:14:57;;;;;;;13.15;5.47;;;;;;;14.33;99.25;94471.91;5139777;27;20196;-72
2023/06/02 01:17:30;;;;;;;8.10;4.93;;;;;;;14.47;99.03;94486.69;5140359;27;20197;-71
2023/06/02 01:20:04;;;;;;;7.43;5.35;;;;;;;14.52;99.26;94483.66;5140134;27;20200;-72
2023/06/02 01:22:38;;;;;;;9.43;5.18;;;;;;;14.46;99.19;94473.41;5139440;27;20192;-71
2023/06/02 01:25:19;;;;;;;7.35;5.10;;;;;;;14.53;98.41;94479.00;5144498;27;20246;-71
2023/06/02 01:27:46;;;;;;;7.03;5.18;;;;;;;14.50;98.91;94479.72;5146073;27;20856;-71
2023/06/02 01:30:13;;;;;;;12.30;5.53;;;;;;;14.50;99.43;94480.50;5143289;27;20227;-71
2023/06/02 01:32:47;;;;;;;9.70;5.28;;;;;;;14.55;98.87;94479.44;5140598;27;20223;-72
2023/06/02 01:35:19;;;;;;;9.00;5.05;;;;;;;14.50;98.55;94472.31;5153516;27;20252;-71
2023/06/02 01:37:50;;;;;;;7.45;5.18;;;;;;;14.42;98.84;94472.53;5140814;27;20312;-71
2023/06/02 01:40:19;;;;;;;7.25;5.38;;;;;;;14.34;99.82;94470.78;5139279;27;20197;-71
2023/06/02 01:42:46;;;;;;;11.68;5.75;;;;;;;14.40;100.00;94470.16;5143906;27;20205;-70
2023/06/02 01:45:15;;;;;;;9.65;6.05;;;;;;;14.50;100.00;94468.81;5146248;27;20200;-71
2023/06/02 01:47:42;;;;;;;10.05;5.82;;;;;;;14.47;100.00;94469.53;5142289;27;20667;-70
2023/06/02 01:50:09;;;;;;;9.60;6.55;;;;;;;14.46;100.00;94463.31;5139180;27;20285;-71
2023/06/02 01:52:36;;;;;;;9.43;5.78;;;;;;;14.53;100.00;94462.66;5153008;27;20232;-70
2023/06/02 01:55:03;;;;;;;9.15;5.45;;;;;;;14.65;100.00;94465.25;5138930;27;20666;-71
2023/06/02 01:57:33;;;;;;;11.75;6.05;;;;;;;14.75;99.85;94464.72;5153584;27;20200;-71
2023/06/02 02:00:00;;;;;;;8.23;5.80;;;;;;;14.74;99.40;94463.13;5151398;27;20696;-70
2023/06/02 02:02:26;;;;;;;8.23;5.68;;;;;;;14.79;99.58;94464.75;5142332;27;20200;-71
2023/06/02 02:04:53;;;;;;;7.63;4.78;;;;;;;14.83;99.01;94460.97;5145705;27;20294;-72
2023/06/02 02:07:20;;;;;;;7.68;5.22;;;;;;;14.68;98.86;94464.53;5142499;27;20204;-72
2023/06/02 02:09:47;;;;;;;8.23;5.13;;;;;;;14.52;98.33;94466.53;5138915;27;20200;-72
2023/06/02 02:12:14;;;;;;;8.65;5.40;;;;;;;14.42;98.37;94461.63;5141382;27;20659;-71
2023/06/02 02:14:42;;;;;;;6.85;5.18;;;;;;;14.31;98.76;94472.28;5145157;27;20196;-71
2023/06/02 02:17:10;;;;;;;7.28;5.47;;;;;;;14.42;98.55;94467.88;5143505;27;20197;-71
2023/06/02 02:19:37;;;;;;;8.00;5.00;;;;;;;14.42;98.51;94465.16;5138626;27;20210;-71
2023/06/02 02:22:04;;;;;;;11.02;5.10;;;;;;;14.43;98.42;94460.50;5140612;27;20326;-71
2023/06/02 02:24:30;;;;;;;11.23;6.15;;;;;;;14.48;98.27;94465.69;5150511;27;20211;-71
2023/06/02 02:26:57;;;;;;;9.40;5.43;;;;;;;14.48;97.92;94465.69;5140472;27;20197;-71
2023/06/02 02:29:24;;;;;;;8.88;5.05;;;;;;;14.54;99.33;94464.25;5145549;27;20219;-71
2023/06/02 02:31:54;;;;;;;11.40;5.63;;;;;;;14.50;99.59;94469.59;5144186;27;20202;-72
2023/06/02 02:34:21;;;;;;;9.95;4.95;;;;;;;14.55;99.61;94454.91;5152009;27;20571;-70
2023/06/02 02:36:50;;;;;;;9.15;5.85;;;;;;;14.53;100.00;94454.47;5139119;27;20284;-70
2023/06/02 02:39:17;;;;;;;12.13;5.97;;;;;;;14.54;99.84;94459.56;5144999;27;20208;-70
2023/06/02 02:41:43;;;;;;;6.47;4.70;;;;;;;14.54;100.00;94456.06;5139561;27;20200;-70
2023/06/02 02:44:10;;;;;;;7.80;5.38;;;;;;;14.55;100.00;94460.38;5143527;27;20246;-71
2023/06/02 02:46:37;;;;;;;9.48;5.35;;;;;;;14.51;99.82;94454.84;5143732;27;20238;-71
2023/06/02 02:49:06;;;;;;;10.65;5.38;;;;;;;14.50;99.78;94450.53;5138007;27;20642;-71
2023/06/02 02:51:33;;;;;;;6.82;5.00;;;;;;;14.59;98.99;94458.53;5139653;27;20201;-72
2023/06/02 02:54:00;;;;;;;11.20;4.90;;;;;;;14.51;98.40;94448.59;5142120;27;20281;-72
2023/06/02 02:56:27;;;;;;;7.50;5.32;;;;;;;14.46;97.48;94452.41;5140052;27;20254;-71
2023/06/02 02:58:56;;;;;;;12.73;5.22;;;;;;;14.49;97.69;94453.59;5141126;27;20280;-71
2023/06/02 03:01:24;;;;;;;10.93;5.30;;;;;;;14.61;97.35;94449.97;5141385;27;20275;-71
2023/06/02 03:03:51;;;;;;;8.18;5.82;;;;;;;14.56;97.28;94453.78;5140433;27;20280;-71
2023/06/02 03:06:21;;;;;;;8.43;5.15;;;;;;;14.69;97.68;94455.22;5139820;27;20250;-71
2023/06/02 03:08:48;;;;;;;9.35;5.93;;;;;;;14.97;96.95;94455.00;5141461;27;20651;-71
2023/06/02 03:11:15;;;;;;;8.90;4.65;;;;;;;15.13;95.95;94452.22;5139886;27;20647;-71
2023/06/02 03:13:41;;;;;;;6.05;4.32;;;;;;;15.36;95.27;94458.50;5138621;27;20691;-71
2023/06/02 03:16:08;;;;;;;7.15;4.55;;;;;;;15.48;95.12;94463.00;5141966;27;20214;-71
2023/06/02 03:18:35;;;;;;;13.45;5.40;;;;;;;15.83;93.47;94457.41;5141531;27;20192;-71
2023/06/02 03:21:02;;;;;;;9.32;4.70;;;;;;;15.98;91.75;94457.28;5141197;27;20253;-71
2023/06/02 03:23:30;;;;;;;10.52;5.50;;;;;;;15.88;91.15;94457.09;5140850;27;20678;-71
2023/06/02 03:25:57;;;;;;;8.77;5.22;;;;;;;15.81;90.65;94449.59;5136517;27;20273;-71
2023/06/02 03:28:23;;;;;;;9.75;5.38;;;;;;;15.80;90.85;94452.69;5138987;27;20224;-70
2023/06/02 03:30:50;;;;;;;6.50;5.05;;;;;;;15.83;91.19;94462.88;5144663;27;20758;-70
2023/06/02 03:33:17;;;;;;;8.07;5.05;;;;;;;15.88;91.27;94459.81;5150738;27;20216;-71
2023/06/02 03:35:44;;;;;;;7.93;4.93;;;;;;;15.88;91.79;94460.63;5137135;27;20724;-70
2023/06/02 03:38:10;;;;;;;7.70;5.10;;;;;;;15.96;91.61;94467.00;5151080;27;20875;-70
2023/06/02 03:40:38;;;;;;;10.93;6.07;;;;;;;16.12;90.20;94459.47;5147077;27;20204;-72
2023/06/02 03:43:05;;;;;;;10.60;5.43;;;;;;;16.20;89.81;94450.19;5142157;27;20200;-71
2023/06/02 03:45:32;;;;;;;9.77;5.57;;;;;;;16.21;90.33;94456.47;5132664;27;20213;-72
2023/06/02 03:47:59;;;;;;;13.93;6.38;;;;;;;16.28;90.91;94446.41;5141977;27;20196;-72
2023/06/02 03:50:26;;;;;;;8.15;5.40;;;;;;;17.08;88.96;94449.09;5137017;27;20235;-73
2023/06/02 03:52:52;;;;;;;7.22;5.15;;;;;;;18.60;80.31;94433.25;5139088;27;20261;-73
2023/06/02 03:55:19;;;;;;;9.77;5.80;;;;;;;19.54;73.91;94436.03;5144180;27;20273;-71
2023/06/02 03:57:47;;;;;;;9.07;4.97;;;;;;;20.42;71.34;94429.81;5142129;27;20647;-72
2023/06/02 04:00:14;;;;;;;8.75;5.43;;;;;;;21.11;69.23;94427.28;5149951;27;20248;-72
2023/06/02 04:02:41;;;;;;;11.85;5.35;;;;;;;22.46;64.22;94420.94;5138961;27;20228;-71
2023/06/02 04:05:11;;;;;;;9.45;5.13;;;;;;;23.29;61.82;94405.88;5137639;27;20200;-72
2023/06/02 04:07:38;;;;;;;13.18;5.60;;;;;;;23.87;58.94;94414.97;5151567;27;20245;-71
2023/06/02 04:10:05;;;;;;;6.80;5.63;;;;;;;24.65;57.08;94405.41;5134305;27;20213;-72
2023/06/02 04:12:32;;;;;;;10.63;5.22;;;;;;;24.84;55.78;94419.72;5143150;27;20243;-71
2023/06/02 04:15:01;;;;;;;10.93;5.68;;;;;;;25.28;54.39;94408.22;5144570;27;20706;-72
2023/06/02 04:17:28;;;;;;;8.43;5.65;;;;;;;25.83;52.83;94420.53;5143006;27;20702;-72
2023/06/02 04:19:55;;;;;;;7.90;5.78;;;;;;;26.00;50.45;94418.56;5148933;27;20200;-71
2023/06/02 04:22:22;;;;;;;9.88;6.47;;;;;;;25.56;49.98;94422.69;5149734;27;20200;-71
2023/06/02 04:24:49;;;;;;;9.45;6.50;;;;;;;25.83;50.11;94417.78;5148179;27;20260;-71
2023/06/02 04:27:17;;;;;;;9.23;6.47;;;;;;;25.78;49.79;94412.72;5134980;27;20733;-71
2023/06/02 04:29:44;;;;;;;10.25;6.10;;;;;;;26.52;49.01;94415.72;5128208;27;20666;-72
2023/06/02 04:32:12;;;;;;;10.55;6.90;;;;;;;27.52;46.48;94408.28;5130097;27;20574;-71
2023/06/02 04:34:39;;;;;;;10.68;6.43;;;;;;;27.45;45.87;94403.72;5150523;27;20227;-71
2023/06/02 04:37:07;;;;;;;9.07;6.45;;;;;;;27.72;45.08;94399.78;5148750;27;20200;-71
2023/06/02 04:39:35;;;;;;;10.98;6.90;;;;;;;28.76;43.57;94398.84;5133442;27;20205;-72
2023/06/02 04:42:03;;;;;;;8.60;6.80;;;;;;;27.99;43.98;94391.78;5146860;27;20726;-72
2023/06/02 04:44:30;;;;;;;8.07;6.45;;;;;;;29.24;42.07;94405.19;5132769;27;20232;-72
2023/06/02 04:46:56;;;;;;;11.98;6.57;;;;;;;29.20;41.23;94404.50;5132623;27;20254;-71
2023/06/02 04:49:25;;;;;;;12.93;7.30;;;;;;;29.76;40.65;94407.25;5132308;27;20512;-72
2023/06/02 04:51:55;;;;;;;8.75;6.68;;;;;;;27.95;43.89;94419.75;5132626;27;20213;-71
2023/06/02 04:54:21;;;;;;;10.60;7.20;;;;;;;27.91;44.64;94409.94;5132697;27;20232;-72
2023/06/02 04:56:48;;;;;;;9.25;7.10;;;;;;;27.85;44.60;94414.50;5133048;27;20269;-72
2023/06/02 04:59:15;;;;;;;8.65;7.05;;;;;;;27.57;45.03;94416.91;5142945;27;20249;-72
2023/06/02 05:01:42;;;;;;;15.02;7.05;;;;;;;28.27;43.92;94418.78;5150003;27;20648;-71
2023/06/02 05:04:09;;;;;;;11.35;7.47;;;;;;;28.41;43.18;94427.91;5132359;27;20868;-71
2023/06/02 05:06:37;;;;;;;13.95;7.57;;;;;;;28.55;42.82;94430.22;5149784;27;20208;-71
2023/06/02 05:09:04;;;;;;;12.18;6.97;;;;;;;28.92;42.73;94434.97;5141447;27;20197;-71
2023/06/02 05:11:30;;;;;;;10.90;6.35;;;;;;;29.08;42.26;94436.03;5132417;27;20212;-71
2023/06/02 05:13:57;;;;;;;11.48;6.32;;;;;;;29.14;42.23;94434.22;5132331;27;20716;-71
2023/06/02 05:16:24;;;;;;;9.70;7.07;;;;;;;28.72;41.90;94442.78;5132286;27;20656;-72
2023/06/02 05:18:51;;;;;;;10.55;6.50;;;;;;;28.39;41.37;94430.38;5132463;27;20209;-71
2023/06/02 05:21:18;;;;;;;14.48;6.32;;;;;;;29.76;39.47;94435.19;5132178;27;20258;-71
2023/06/02 05:23:46;;;;;;;9.70;6.28;;;;;;;29.18;40.20;94432.09;5132041;27;20715;-71
2023/06/02 05:26:13;;;;;;;12.45;6.07;;;;;;;29.85;39.33;94438.03;5131953;27;20261;-71
2023/06/02 05:28:40;;;;;;;12.93;6.82;;;;;;;30.15;39.45;94433.72;5131546;27;20221;-71
2023/06/02 05:31:07;;;;;;;8.23;6.20;;;;;;;30.44;38.25;94426.97;5132317;27;20256;-71
2023/06/02 05:33:34;;;;;;;9.77;5.85;;;;;;;30.31;37.25;94433.47;5145803;27;20208;-71
2023/06/02 05:36:01;;;;;;;16.33;6.40;;;;;;;30.95;37.00;94430.06;5145942;27;20633;-72
2023/06/02 05:38:27;;;;;;;11.75;6.35;;;;;;;31.13;36.33;94429.34;5132145;27;20543;-71
2023/06/02 05:40:56;;;;;;;13.00;6.28;;;;;;;31.43;35.30;94417.22;5138530;27;20216;-71
2023/06/02 05:43:22;;;;;;;6.60;5.35;;;;;;;31.89;35.24;94417.94;5152068;27;20229;-71
2023/06/02 05:45:49;;;;;;;8.25;5.40;;;;;;;31.91;34.55;94421.06;5152867;27;20204;-71
2023/06/02 05:48:16;;;;;;;8.93;5.57;;;;;;;31.64;36.08;94419.09;5152301;27;20225;-71
2023/06/02 05:50:43;;;;;;;11.95;6.00;;;;;;;30.40;37.57;94433.50;5139258;27;20196;-71
2023/06/02 05:53:10;;;;;;;11.93;6.03;;;;;;;30.42;37.06;94435.06;5151415;27;20652;-71
2023/06/02 05:55:37;;;;;;;8.98;6.00;;;;;;;30.26;38.12;94434.06;5131530;27;20213;-71
2023/06/02 05:58:05;;;;;;;11.82;6.05;;;;;;;29.89;38.06;94437.88;5131782;27;20284;-71
2023/06/02 06:00:31;;;;;;;9.07;5.88;;;;;;;30.08;38.11;94431.16;5131447;27;20617;-72
2023/06/02 06:02:58;;;;;;;5.93;5.30;;;;;;;31.25;37.11;94431.22;5131511;27;20277;-73
2023/06/02 06:05:25;;;;;;;12.98;6.13;;;;;;;31.13;36.70;94432.16;5131567;27;20240;-72
2023/06/02 06:07:52;;;;;;;7.32;5.45;;;;;;;28.99;40.36;94448.66;5131340;27;20213;-72
2023/06/02 06:10:19;;;;;;;5.63;4.97;;;;;;;29.98;39.28;94435.94;5131193;27;20201;-72
2023/06/02 06:12:45;;;;;;;6.32;5.20;;;;;;;31.44;37.52;94432.75;5131239;27;20632;-71
2023/06/02 06:15:14;;;;;;;9.00;5.55;;;;;;;31.26;37.52;94435.56;5140183;27;20204;-72
2023/06/02 06:17:49;;;;;;;9.55;5.10;;;;;;;32.17;36.03;94429.06;5149954;27;20201;-72
2023/06/02 06:20:16;;;;;;;11.77;5.50;;;;;;;32.03;36.40;94436.91;5130766;27;20210;-71
2023/06/02 06:22:43;;;;;;;5.90;5.00;;;;;;;32.35;35.17;94427.00;5148230;27;20455;-72
2023/06/02 06:25:10;;;;;;;9.23;5.10;;;;;;;32.75;35.90;94432.28;5140269;27;20273;-71
2023/06/02 06:27:37;;;;;;;8.82;5.40;;;;;;;33.58;33.42;94426.88;5130342;27;20240;-72
2023/06/02 06:30:04;;;;;;;8.05;5.88;;;;;;;32.75;32.87;94428.72;5130344;27;20236;-72
2023/06/02 06:32:32;;;;;;;7.28;5.25;;;;;;;33.43;33.92;94428.88;5149134;27;20196;-71
2023/06/02 06:35:00;;;;;;;11.05;5.22;;;;;;;32.93;33.59;94431.41;5139714;27;20658;-72
2023/06/02 06:37:27;;;;;;;9.43;5.72;;;;;;;32.77;34.90;94437.44;5130815;27;20750;-72
2023/06/02 06:39:54;;;;;;;8.05;6.45;;;;;;;31.52;36.71;94448.00;5131224;27;20212;-72
2023/06/02 06:42:22;;;;;;;11.48;6.20;;;;;;;29.94;39.29;94437.28;5130504;27;20647;-72
2023/06/02 06:44:50;;;;;;;14.63;6.13;;;;;;;30.10;38.44;94430.72;5130995;27;20228;-71
2023/06/02 06:47:17;;;;;;;14.70;6.88;;;;;;;29.64;39.07;94438.84;5130584;27;20806;-71
2023/06/02 06:49:45;;;;;;;16.58;6.50;;;;;;;28.12;41.63;94444.72;5130119;27;20711;-71
2023/06/02 06:52:11;;;;;;;9.95;5.70;;;;;;;28.27;41.04;94441.06;5131121;27;20335;-71
2023/06/02 06:54:38;;;;;;;9.00;5.35;;;;;;;28.54;42.24;94431.47;5130793;27;20565;-71
2023/06/02 06:57:06;;;;;;;8.68;5.82;;;;;;;29.60;40.46;94438.94;5137553;27;20205;-71
2023/06/02 06:59:33;;;;;;;11.88;5.90;;;;;;;30.05;38.92;94434.91;5138136;27;20209;-71
2023/06/02 07:01:59;;;;;;;9.05;6.55;;;;;;;27.97;41.98;94441.59;5130345;27;20204;-71
2023/06/02 07:04:27;;;;;;;9.90;6.13;;;;;;;27.79;44.26;94439.31;5129864;27;20644;-71
2023/06/02 07:06:55;;;;;;;8.00;5.95;;;;;;;26.96;45.01;94446.81;5138192;27;20210;-72
2023/06/02 07:09:22;;;;;;;10.25;5.80;;;;;;;26.36;46.79;94446.31;5149582;27;20204;-71
2023/06/02 07:11:49;;;;;;;7.60;6.30;;;;;;;26.70;45.83;94443.88;5129802;27;20655;-72
2023/06/02 07:14:16;;;;;;;14.30;6.35;;;;;;;27.19;44.25;94446.59;5130183;27;20678;-72
2023/06/02 07:16:46;;;;;;;5.72;4.95;;;;;;;27.64;43.50;94442.97;5130381;27;20204;-71
2023/06/02 07:19:12;;;;;;;8.50;5.78;;;;;;;28.17;43.35;94444.91;5130124;27;20205;-71
2023/06/02 07:21:39;;;;;;;9.32;6.10;;;;;;;27.64;43.23;94440.97;5133059;27;20724;-72
2023/06/02 07:24:07;;;;;;;10.45;5.53;;;;;;;27.99;43.57;94441.94;5150744;27;20239;-71
2023/06/02 07:26:34;;;;;;;9.55;6.10;;;;;;;27.57;43.88;94449.53;5141841;27;20638;-72
2023/06/02 07:29:01;;;;;;;10.98;6.40;;;;;;;27.06;43.94;94454.88;5129951;27;20266;-71
2023/06/02 07:31:28;;;;;;;7.07;5.63;;;;;;;27.30;43.31;94461.00;5129527;27;20289;-71
2023/06/02 07:33:56;;;;;;;10.38;6.05;;;;;;;27.62;43.92;94460.09;5146676;27;20246;-71
2023/06/02 07:36:23;;;;;;;10.13;6.25;;;;;;;27.12;45.08;94464.25;5150551;27;20215;-71
2023/06/02 07:38:50;;;;;;;7.78;5.93;;;;;;;27.32;44.85;94474.47;5150593;27;20219;-70
2023/06/02 07:41:18;;;;;;;8.82;6.70;;;;;;;26.40;46.58;94463.66;5140671;27;20212;-71
2023/06/02 07:43:46;;;;;;;9.57;6.13;;;;;;;26.14;47.39;94463.44;5129233;27;20222;-71
2023/06/02 07:46:12;;;;;;;11.15;7.05;;;;;;;25.86;48.85;94464.06;5128885;27;20440;-71
2023/06/02 07:48:39;;;;;;;11.30;7.10;;;;;;;26.14;48.19;94474.56;5128750;27;20228;-71
2023/06/02 07:51:07;;;;;;;10.30;6.20;;;;;;;25.97;48.06;94464.63;5129188;27;20625;-71
2023/06/02 07:53:34;;;;;;;12.00;6.30;;;;;;;25.91;48.34;94477.47;5129749;27;20209;-71
2023/06/02 07:56:01;;;;;;;10.27;6.10;;;;;;;26.35;46.89;94472.53;5129938;27;20205;-71
2023/06/02 07:58:29;;;;;;;13.48;5.47;;;;;;;25.84;47.16;94469.28;5132678;27;20200;-71
2023/06/02 08:00:56;;;;;;;10.95;5.90;;;;;;;25.37;48.48;94471.41;5150320;27;20726;-71
2023/06/02 08:03:22;;;;;;;7.53;5.63;;;;;;;25.86;45.82;94469.63;5132037;27;20246;-72
2023/06/02 08:05:49;;;;;;;7.55;5.25;;;;;;;26.51;44.77;94458.66;5141219;27;20288;-70
2023/06/02 08:08:16;;;;;;;8.88;5.72;;;;;;;27.50;45.13;94449.69;5145233;27;20205;-71
2023/06/02 08:10:43;;;;;;;9.50;6.30;;;;;;;27.51;44.20;94452.03;5129667;27;20216;-71
2023/06/02 08:13:11;;;;;;;10.88;6.50;;;;;;;27.44;44.49;94452.25;5131946;27;20241;-72
2023/06/02 08:15:39;;;;;;;10.15;5.55;;;;;;;25.92;44.08;94451.25;5133988;27;20205;-71
2023/06/02 08:18:13;;;;;;;6.93;5.40;;;;;;;25.80;45.59;94455.50;5133493;27;20208;-71
2023/06/02 08:20:41;;;;;;;9.93;5.72;;;;;;;26.01;45.27;94445.91;5146745;27;20192;-73
2023/06/02 08:23:08;;;;;;;9.55;5.60;;;;;;;26.31;45.36;94438.50;5147677;27;20205;-72
2023/06/02 08:25:37;;;;;;;9.98;5.78;;;;;;;27.11;42.59;94434.09;5132869;27;20779;-72
2023/06/02 08:28:05;;;;;;;8.35;5.78;;;;;;;27.71;43.79;94423.28;5133671;27;20254;-71
2023/06/02 08:30:32;;;;;;;10.70;6.13;;;;;;;27.74;41.51;94414.06;5131989;27;20340;-71
2023/06/02 08:33:02;;;;;;;7.43;5.50;;;;;;;28.57;39.95;94419.38;5141699;27;20200;-71
2023/06/02 08:35:29;;;;;;;10.68;6.20;;;;;;;28.75;39.33;94408.44;5139661;27;20200;-71
2023/06/02 08:37:56;;;;;;;8.25;5.88;;;;;;;28.51;41.36;94398.91;5154144;27;20236;-72
2023/06/02 08:40:26;;;;;;;9.18;6.22;;;;;;;27.44;41.28;94410.50;5137697;27;20205;-72
2023/06/02 08:42:53;;;;;;;8.88;5.68;;;;;;;27.64;42.10;94409.56;5133180;27;20288;-72
2023/06/02 08:45:22;;;;;;;7.97;5.65;;;;;;;28.39;39.36;94408.06;5132684;27;20290;-72
2023/06/02 08:47:54;;;;;;;8.70;5.40;;;;;;;28.79;38.95;94409.13;5133337;27;20201;-72
2023/06/02 08:50:28;;;;;;;9.07;4.82;;;;;;;28.85;37.26;94398.94;5133064;27;20207;-72
2023/06/02 08:52:57;;;;;;;7.30;4.68;;;;;;;27.99;38.60;94391.78;5133107;27;20530;-73
2023/06/02 08:55:24;;;;;;;10.20;6.18;;;;;;;27.20;41.19;94392.50;5132756;27;20201;-72
2023/06/02 08:57:52;;;;;;;9.70;5.55;;;;;;;27.98;40.65;94383.88;5133262;27;20209;-72
2023/06/02 09:00:19;;;;;;;8.63;5.15;;;;;;;27.81;39.60;94380.41;5151370;27;20299;-71
2023/06/02 09:02:47;;;;;;;7.35;4.93;;;;;;;28.77;40.23;94366.94;5139396;27;20667;-70
2023/06/02 09:05:16;;;;;;;8.85;5.68;;;;;;;28.67;38.28;94373.66;5132926;27;20264;-72
2023/06/02 09:07:45;;;;;;;9.95;6.00;;;;;;;28.38;40.68;94375.84;5132787;27;20555;-72
2023/06/02 09:10:29;;;;;;;11.00;6.43;;;;;;;27.51;41.58;94379.69;5132854;27;20288;-72
2023/06/02 09:12:56;;;;;;;7.57;5.70;;;;;;;26.26;44.36;94381.44;5132504;27;20237;-72
2023/06/02 09:15:24;;;;;;;9.60;5.95;;;;;;;26.99;42.68;94373.66;5132227;27;20205;-72
2023/06/02 09:17:51;;;;;;;8.75;5.47;;;;;;;27.31;42.50;94369.97;5132421;27;20250;-72
2023/06/02 09:20:18;;;;;;;7.38;4.70;;;;;;;26.47;39.13;94388.50;5132485;27;20204;-72
2023/06/02 09:22:57;;;;;;;6.55;4.32;;;;;;;26.39;42.57;94378.75;5146035;27;20659;-71
2023/06/02 09:25:24;;;;;;;6.30;4.47;;;;;;;26.79;42.69;94368.97;5132231;27;20240;-72
2023/06/02 09:27:52;;;;;;;6.68;3.97;;;;;;;27.13;39.76;94365.69;5152145;27;20227;-72
2023/06/02 09:30:19;;;;;;;5.60;4.05;;;;;;;27.84;38.35;94352.47;5139961;27;20229;-72
2023/06/02 09:32:53;;;;;;;6.45;4.35;;;;;;;28.48;39.11;94350.41;5139057;27;20631;-72
2023/06/02 09:35:37;;;;;;;7.53;4.90;;;;;;;27.52;38.80;94347.06;5138251;27;20193;-72
2023/06/02 09:38:07;;;;;;;7.85;4.38;;;;;;;27.68;38.19;94354.56;5132251;27;20647;-72
2023/06/02 09:40:34;;;;;;;10.15;5.07;;;;;;;26.71;41.58;94350.94;5131959;27;20229;-71
2023/06/02 09:43:04;;;;;;;7.72;4.80;;;;;;;27.13;40.88;94345.44;5143169;27;20199;-72
2023/06/02 09:45:31;;;;;;;7.57;4.43;;;;;;;26.82;40.82;94351.41;5133991;27;20635;-72
2023/06/02 09:47:58;;;;;;;10.15;4.63;;;;;;;27.03;41.43;94354.88;5132250;27;20209;-72
2023/06/02 09:50:36;;;;;;;6.15;4.38;;;;;;;26.10;40.39;94356.47;5131657;27;20209;-74
2023/06/02 09:53:06;;;;;;;8.73;4.57;;;;;;;25.28;39.92;94357.50;5132039;27;20200;-72
2023/06/02 09:55:35;;;;;;;6.85;4.40;;;;;;;25.46;41.40;94355.91;5131565;27;20720;-72
2023/06/02 09:58:03;;;;;;;7.70;4.32;;;;;;;25.82;41.24;94352.38;5131660;27;20208;-71
2023/06/02 10:00:30;;;;;;;8.57;4.28;;;;;;;25.32;41.26;94347.88;5151915;27;20200;-72
2023/06/02 10:02:57;;;;;;;6.75;4.72;;;;;;;25.60;42.32;94354.03;5152161;27;20211;-72
2023/06/02 10:05:24;;;;;;;7.45;4.25;;;;;;;25.80;41.91;94355.56;5143675;27;20312;-71
2023/06/02 10:08:02;;;;;;;8.10;5.28;;;;;;;25.80;42.01;94349.25;5131515;27;20208;-71
2023/06/02 10:10:44;;;;;;;7.13;4.93;;;;;;;26.30;43.41;94336.94;5131482;27;20205;-71
2023/06/02 10:13:43;;;;;;;7.65;5.35;;;;;;;26.36;43.08;94335.22;5131515;27;20200;-71
2023/06/02 10:16:20;;;;;;;7.43;5.07;;;;;;;25.91;42.48;94335.09;5130966;27;20667;-72
2023/06/02 10:19:12;;;;;;;8.38;5.75;;;;;;;25.85;42.33;94334.81;5131370;27;20244;-71
2023/06/02 10:21:54;;;;;;;5.80;4.40;;;;;;;26.14;41.04;94330.16;5131444;27;20209;-72
2023/06/02 10:24:32;;;;;;;4.78;4.28;;;;;;;26.75;41.53;94326.59;5149811;27;20196;-71
2023/06/02 10:27:17;;;;;;;7.13;4.45;;;;;;;27.41;38.43;94319.56;5138837;27;20244;-71
2023/06/02 10:29:45;;;;;;;4.78;4.28;;;;;;;27.01;38.73;94321.16;5130944;27;20264;-71
2023/06/02 10:32:23;;;;;;;5.50;4.20;;;;;;;27.20;39.81;94320.97;5132392;27;20209;-71
2023/06/02 10:34:51;;;;;;;6.18;4.57;;;;;;;26.81;38.58;94313.72;5140544;27;20200;-71
2023/06/02 10:37:20;;;;;;;6.70;4.30;;;;;;;27.08;37.80;94309.81;5133452;27;20678;-71
2023/06/02 10:39:52;;;;;;;6.53;4.57;;;;;;;28.04;36.52;94307.66;5151866;27;20647;-71
2023/06/02 10:42:22;;;;;;;8.10;4.72;;;;;;;28.54;36.25;94294.88;5151271;27;20619;-72
2023/06/02 10:44:51;;;;;;;4.78;3.80;;;;;;;28.84;34.14;94291.41;5138862;27;20201;-72
2023/06/02 10:47:36;;;;;;;5.60;4.03;;;;;;;28.50;37.95;94286.63;5130298;27;20212;-72
2023/06/02 10:50:09;;;;;;;6.35;4.43;;;;;;;28.05;37.11;94292.50;5130831;27;20220;-71
2023/06/02 10:52:56;;;;;;;5.50;4.72;;;;;;;27.89;36.34;94273.16;5130900;27;20232;-71
2023/06/02 10:55:28;;;;;;;5.25;4.13;;;;;;;27.99;36.51;94274.81;5140745;27;20233;-71
2023/06/02 10:57:57;;;;;;;7.43;4.32;;;;;;;28.42;37.17;94278.97;5150243;27;20212;-72
2023/06/02 11:00:48;;;;;;;6.68;4.50;;;;;;;28.83;37.52;94281.50;5148546;27;20236;-72
2023/06/02 11:03:35;;;;;;;6.55;4.38;;;;;;;28.62;37.58;94274.66;5150854;27;20659;-72
2023/06/02 11:06:19;;;;;;;9.02;4.53;;;;;;;28.94;36.29;94270.75;5151185;27;20223;-72
2023/06/02 11:08:47;;;;;;;5.40;4.18;;;;;;;26.95;38.03;94276.41;5145472;27;20260;-71
2023/06/02 11:11:53;;;;;;;5.32;4.40;;;;;;;27.49;38.74;94270.03;5140435;27;20652;-72
2023/06/02 11:14:20;;;;;;;5.68;4.53;;;;;;;28.21;38.12;94269.34;5145074;27;20193;-72
2023/06/02 11:16:47;;;;;;;6.65;4.40;;;;;;;28.18;37.78;94271.00;5139437;27;20306;-71
2023/06/02 11:19:50;;;;;;;6.47;4.60;;;;;;;27.02;38.64;94281.00;5134430;27;20242;-72
2023/06/02 11:22:21;;;;;;;5.07;4.18;;;;;;;26.33;39.15;94280.53;5150741;27;20200;-71
2023/06/02 11:24:50;;;;;;;7.78;4.70;;;;;;;26.69;39.98;94270.00;5143247;27;20194;-72
2023/06/02 11:27:19;;;;;;;7.32;4.10;;;;;;;26.85;41.21;94269.94;5129846;27;20254;-72
2023/06/02 11:29:45;;;;;;;6.72;4.47;;;;;;;26.50;41.67;94262.59;5129838;27;20240;-71
2023/06/02 11:32:15;;;;;;;7.95;4.72;;;;;;;26.42;42.00;94266.78;5131527;27;20205;-71
2023/06/02 11:34:42;;;;;;;5.75;4.30;;;;;;;26.63;41.53;94255.09;5142034;27;20205;-71
2023/06/02 11:37:14;;;;;;;7.30;4.50;;;;;;;26.70;41.31;94260.44;5129806;27;20217;-71
2023/06/02 11:39:53;;;;;;;8.27;4.95;;;;;;;26.37;40.96;94270.09;5130322;27;20205;-71